sensor_id;sensor_type;location;lat;lon;timestamp;temperature;humidity
74940;HTU21D;63505;45.226;37.908;2023-05-07T00:00:00;15.59;71.48
74940;HTU21D;63505;45.226;37.908;2023-05-07T00:02:26;15.58;71.52
74940;HTU21D;63505;45.226;37.908;2023-05-07T00:04:52;15.57;71.54
74940;HTU21D;63505;45.226;37.908;2023-05-07T00:07:18;15.55;71.56
74940;HTU21D;63505;45.226;37.908;2023-05-07T00:09:44;15.51;71.58
74940;HTU21D;63505;45.226;37.908;2023-05-07T00:12:10;15.49;71.59
74940;HTU21D;63505;45.226;37.908;2023-05-07T00:14:35;15.46;71.61
74940;HTU21D;63505;45.226;37.908;2023-05-07T00:17:01;15.45;71.64
74940;HTU21D;63505;45.226;37.908;2023-05-07T00:19:27;15.41;71.71
74940;HTU21D;63505;45.226;37.908;2023-05-07T00:21:53;15.40;71.71
74940;HTU21D;63505;45.226;37.908;2023-05-07T00:24:19;15.40;71.66
74940;HTU21D;63505;45.226;37.908;2023-05-07T00:26:45;15.37;71.63
74940;HTU21D;63505;45.226;37.908;2023-05-07T00:29:11;15.36;71.67
74940;HTU21D;63505;45.226;37.908;2023-05-07T00:31:37;15.32;71.65
74940;HTU21D;63505;45.226;37.908;2023-05-07T00:34:03;15.29;71.72
74940;HTU21D;63505;45.226;37.908;2023-05-07T00:36:29;15.28;71.84
74940;HTU21D;63505;45.226;37.908;2023-05-07T00:38:57;15.28;71.93
74940;HTU21D;63505;45.226;37.908;2023-05-07T00:41:25;15.28;71.85
74940;HTU21D;63505;45.226;37.908;2023-05-07T00:43:52;15.28;71.79
74940;HTU21D;63505;45.226;37.908;2023-05-07T00:46:20;15.25;71.77
74940;HTU21D;63505;45.226;37.908;2023-05-07T00:48:46;15.26;71.71
74940;HTU21D;63505;45.226;37.908;2023-05-07T00:51:12;15.23;71.65
74940;HTU21D;63505;45.226;37.908;2023-05-07T00:53:38;15.22;71.64
74940;HTU21D;63505;45.226;37.908;2023-05-07T00:56:06;15.21;71.70
74940;HTU21D;63505;45.226;37.908;2023-05-07T00:58:33;15.17;71.70
74940;HTU21D;63505;45.226;37.908;2023-05-07T01:00:59;15.16;71.74
74940;HTU21D;63505;45.226;37.908;2023-05-07T01:03:25;15.14;71.71
74940;HTU21D;63505;45.226;37.908;2023-05-07T01:05:52;15.10;71.74
74940;HTU21D;63505;45.226;37.908;2023-05-07T01:08:20;15.08;71.78
74940;HTU21D;63505;45.226;37.908;2023-05-07T01:10:48;15.04;71.80
74940;HTU21D;63505;45.226;37.908;2023-05-07T01:13:14;15.04;71.78
74940;HTU21D;63505;45.226;37.908;2023-05-07T01:15:42;15.02;71.74
74940;HTU21D;63505;45.226;37.908;2023-05-07T01:18:08;15.00;71.79
74940;HTU21D;63505;45.226;37.908;2023-05-07T01:20:35;14.96;71.90
74940;HTU21D;63505;45.226;37.908;2023-05-07T01:23:03;14.95;71.93
74940;HTU21D;63505;45.226;37.908;2023-05-07T01:25:29;14.92;71.97
74940;HTU21D;63505;45.226;37.908;2023-05-07T01:27:58;14.91;72.03
74940;HTU21D;63505;45.226;37.908;2023-05-07T01:30:31;14.88;71.94
74940;HTU21D;63505;45.226;37.908;2023-05-07T01:33:08;14.88;71.92
74940;HTU21D;63505;45.226;37.908;2023-05-07T01:35:38;14.84;71.93
74940;HTU21D;63505;45.226;37.908;2023-05-07T01:38:05;14.81;71.96
74940;HTU21D;63505;45.226;37.908;2023-05-07T01:40:31;14.79;72.01
74940;HTU21D;63505;45.226;37.908;2023-05-07T01:42:58;14.77;71.99
74940;HTU21D;63505;45.226;37.908;2023-05-07T01:45:24;14.74;71.94
74940;HTU21D;63505;45.226;37.908;2023-05-07T01:47:51;14.70;71.97
74940;HTU21D;63505;45.226;37.908;2023-05-07T01:50:19;14.69;71.99
74940;HTU21D;63505;45.226;37.908;2023-05-07T01:52:47;14.66;71.96
74940;HTU21D;63505;45.226;37.908;2023-05-07T01:55:13;14.65;71.93
74940;HTU21D;63505;45.226;37.908;2023-05-07T01:57:39;14.62;71.91
74940;HTU21D;63505;45.226;37.908;2023-05-07T02:00:06;14.60;71.90
74940;HTU21D;63505;45.226;37.908;2023-05-07T02:02:41;14.57;71.89
74940;HTU21D;63505;45.226;37.908;2023-05-07T02:05:14;14.53;71.96
74940;HTU21D;63505;45.226;37.908;2023-05-07T02:07:40;14.49;72.03
74940;HTU21D;63505;45.226;37.908;2023-05-07T02:10:07;14.48;72.04
74940;HTU21D;63505;45.226;37.908;2023-05-07T02:12:33;14.47;72.06
74940;HTU21D;63505;45.226;37.908;2023-05-07T02:14:59;14.44;72.06
74940;HTU21D;63505;45.226;37.908;2023-05-07T02:17:25;14.45;72.00
74940;HTU21D;63505;45.226;37.908;2023-05-07T02:19:51;14.44;71.96
74940;HTU21D;63505;45.226;37.908;2023-05-07T02:22:17;14.44;71.93
74940;HTU21D;63505;45.226;37.908;2023-05-07T02:24:43;14.43;71.92
74940;HTU21D;63505;45.226;37.908;2023-05-07T02:27:10;14.42;71.90
74940;HTU21D;63505;45.226;37.908;2023-05-07T02:29:36;14.42;71.87
74940;HTU21D;63505;45.226;37.908;2023-05-07T02:32:02;14.40;71.92
74940;HTU21D;63505;45.226;37.908;2023-05-07T02:34:28;14.40;71.90
74940;HTU21D;63505;45.226;37.908;2023-05-07T02:36:54;14.38;71.93
74940;HTU21D;63505;45.226;37.908;2023-05-07T02:39:23;14.37;71.93
74940;HTU21D;63505;45.226;37.908;2023-05-07T02:41:49;14.37;71.93
74940;HTU21D;63505;45.226;37.908;2023-05-07T02:44:15;14.37;71.94
74940;HTU21D;63505;45.226;37.908;2023-05-07T02:46:41;14.36;71.93
74940;HTU21D;63505;45.226;37.908;2023-05-07T02:49:10;14.34;71.96
74940;HTU21D;63505;45.226;37.908;2023-05-07T02:51:36;14.33;71.99
74940;HTU21D;63505;45.226;37.908;2023-05-07T02:54:07;14.33;71.97
74940;HTU21D;63505;45.226;37.908;2023-05-07T02:56:33;14.30;71.99
74940;HTU21D;63505;45.226;37.908;2023-05-07T02:58:59;14.28;72.02
74940;HTU21D;63505;45.226;37.908;2023-05-07T03:01:28;14.27;72.06
74940;HTU21D;63505;45.226;37.908;2023-05-07T03:04:02;14.25;72.02
74940;HTU21D;63505;45.226;37.908;2023-05-07T03:06:28;14.21;72.07
74940;HTU21D;63505;45.226;37.908;2023-05-07T03:08:53;14.14;72.19
74940;HTU21D;63505;45.226;37.908;2023-05-07T03:11:20;14.08;72.36
74940;HTU21D;63505;45.226;37.908;2023-05-07T03:13:45;13.99;72.64
74940;HTU21D;63505;45.226;37.908;2023-05-07T03:16:11;13.90;72.88
74940;HTU21D;63505;45.226;37.908;2023-05-07T03:18:37;13.81;73.11
74940;HTU21D;63505;45.226;37.908;2023-05-07T03:21:03;13.75;73.19
74940;HTU21D;63505;45.226;37.908;2023-05-07T03:23:29;13.69;73.28
74940;HTU21D;63505;45.226;37.908;2023-05-07T03:25:55;13.65;73.34
74940;HTU21D;63505;45.226;37.908;2023-05-07T03:28:21;13.61;73.36
74940;HTU21D;63505;45.226;37.908;2023-05-07T03:30:52;13.60;73.38
74940;HTU21D;63505;45.226;37.908;2023-05-07T03:33:18;13.59;73.35
74940;HTU21D;63505;45.226;37.908;2023-05-07T03:35:44;13.58;73.34
74940;HTU21D;63505;45.226;37.908;2023-05-07T03:38:13;13.58;73.32
74940;HTU21D;63505;45.226;37.908;2023-05-07T03:40:39;13.58;73.14
74940;HTU21D;63505;45.226;37.908;2023-05-07T03:43:05;13.56;73.16
74940;HTU21D;63505;45.226;37.908;2023-05-07T03:45:34;13.54;73.23
74940;HTU21D;63505;45.226;37.908;2023-05-07T03:48:08;13.54;73.28
74940;HTU21D;63505;45.226;37.908;2023-05-07T03:50:35;13.55;73.28
74940;HTU21D;63505;45.226;37.908;2023-05-07T03:53:01;13.54;73.31
74940;HTU21D;63505;45.226;37.908;2023-05-07T03:55:29;13.52;73.35
74940;HTU21D;63505;45.226;37.908;2023-05-07T03:57:58;13.50;73.39
74940;HTU21D;63505;45.226;37.908;2023-05-07T04:00:27;13.45;73.47
74940;HTU21D;63505;45.226;37.908;2023-05-07T04:02:52;13.40;73.61
74940;HTU21D;63505;45.226;37.908;2023-05-07T04:05:25;13.36;73.70
74940;HTU21D;63505;45.226;37.908;2023-05-07T04:07:57;13.32;73.80
74940;HTU21D;63505;45.226;37.908;2023-05-07T04:10:29;13.27;73.91
74940;HTU21D;63505;45.226;37.908;2023-05-07T04:12:56;13.24;73.96
74940;HTU21D;63505;45.226;37.908;2023-05-07T04:15:24;13.22;74.01
74940;HTU21D;63505;45.226;37.908;2023-05-07T04:17:50;13.20;74.06
74940;HTU21D;63505;45.226;37.908;2023-05-07T04:20:19;13.17;74.12
74940;HTU21D;63505;45.226;37.908;2023-05-07T04:22:50;13.16;74.17
74940;HTU21D;63505;45.226;37.908;2023-05-07T04:25:16;13.15;74.25
74940;HTU21D;63505;45.226;37.908;2023-05-07T04:27:42;13.14;74.37
74940;HTU21D;63505;45.226;37.908;2023-05-07T04:30:09;13.10;74.50
74940;HTU21D;63505;45.226;37.908;2023-05-07T04:32:38;13.10;74.54
74940;HTU21D;63505;45.226;37.908;2023-05-07T04:35:06;13.09;74.53
74940;HTU21D;63505;45.226;37.908;2023-05-07T04:37:33;13.09;74.52
74940;HTU21D;63505;45.226;37.908;2023-05-07T04:39:59;13.08;74.54
74940;HTU21D;63505;45.226;37.908;2023-05-07T04:42:26;13.08;74.51
74940;HTU21D;63505;45.226;37.908;2023-05-07T04:44:53;13.06;74.51
74940;HTU21D;63505;45.226;37.908;2023-05-07T04:47:19;13.03;74.60
74940;HTU21D;63505;45.226;37.908;2023-05-07T04:49:46;13.00;74.73
74940;HTU21D;63505;45.226;37.908;2023-05-07T04:52:12;12.97;74.88
74940;HTU21D;63505;45.226;37.908;2023-05-07T04:54:38;12.99;74.92
74940;HTU21D;63505;45.226;37.908;2023-05-07T04:57:05;13.02;74.94
74940;HTU21D;63505;45.226;37.908;2023-05-07T04:59:32;13.03;74.92
74940;HTU21D;63505;45.226;37.908;2023-05-07T05:01:58;13.03;74.98
74940;HTU21D;63505;45.226;37.908;2023-05-07T05:04:25;13.03;75.00
74940;HTU21D;63505;45.226;37.908;2023-05-07T05:06:51;12.99;75.14
74940;HTU21D;63505;45.226;37.908;2023-05-07T05:09:17;12.95;75.24
74940;HTU21D;63505;45.226;37.908;2023-05-07T05:11:44;12.92;75.36
74940;HTU21D;63505;45.226;37.908;2023-05-07T05:14:09;12.89;75.45
74940;HTU21D;63505;45.226;37.908;2023-05-07T05:16:35;12.86;75.64
74940;HTU21D;63505;45.226;37.908;2023-05-07T05:19:02;12.82;75.89
74940;HTU21D;63505;45.226;37.908;2023-05-07T05:21:31;12.84;76.00
74940;HTU21D;63505;45.226;37.908;2023-05-07T05:24:03;12.85;76.02
74940;HTU21D;63505;45.226;37.908;2023-05-07T05:26:29;12.86;76.02
74940;HTU21D;63505;45.226;37.908;2023-05-07T05:28:56;12.87;76.06
74940;HTU21D;63505;45.226;37.908;2023-05-07T05:31:24;12.90;76.18
74940;HTU21D;63505;45.226;37.908;2023-05-07T05:33:50;12.89;76.34
74940;HTU21D;63505;45.226;37.908;2023-05-07T05:36:16;12.90;76.53
74940;HTU21D;63505;45.226;37.908;2023-05-07T05:38:44;12.93;76.63
74940;HTU21D;63505;45.226;37.908;2023-05-07T05:41:11;12.96;76.70
74940;HTU21D;63505;45.226;37.908;2023-05-07T05:43:37;12.97;76.81
74940;HTU21D;63505;45.226;37.908;2023-05-07T05:46:03;12.97;76.94
74940;HTU21D;63505;45.226;37.908;2023-05-07T05:48:30;12.95;77.19
74940;HTU21D;63505;45.226;37.908;2023-05-07T05:50:57;12.94;77.37
74940;HTU21D;63505;45.226;37.908;2023-05-07T05:53:23;12.90;77.60
74940;HTU21D;63505;45.226;37.908;2023-05-07T05:55:49;12.87;77.82
74940;HTU21D;63505;45.226;37.908;2023-05-07T05:58:16;12.85;77.95
74940;HTU21D;63505;45.226;37.908;2023-05-07T06:00:49;12.81;77.99
74940;HTU21D;63505;45.226;37.908;2023-05-07T06:03:19;12.80;78.12
74940;HTU21D;63505;45.226;37.908;2023-05-07T06:05:46;12.78;78.40
74940;HTU21D;63505;45.226;37.908;2023-05-07T06:08:13;12.76;78.65
74940;HTU21D;63505;45.226;37.908;2023-05-07T06:10:39;12.75;78.82
74940;HTU21D;63505;45.226;37.908;2023-05-07T06:13:07;12.79;78.88
74940;HTU21D;63505;45.226;37.908;2023-05-07T06:15:34;12.84;78.85
74940;HTU21D;63505;45.226;37.908;2023-05-07T06:18:05;12.90;78.80
74940;HTU21D;63505;45.226;37.908;2023-05-07T06:20:32;12.96;78.76
74940;HTU21D;63505;45.226;37.908;2023-05-07T06:22:59;13.03;78.82
74940;HTU21D;63505;45.226;37.908;2023-05-07T06:25:26;13.11;78.81
74940;HTU21D;63505;45.226;37.908;2023-05-07T06:27:52;13.21;78.69
74940;HTU21D;63505;45.226;37.908;2023-05-07T06:30:18;13.31;78.57
74940;HTU21D;63505;45.226;37.908;2023-05-07T06:32:45;13.40;78.48
74940;HTU21D;63505;45.226;37.908;2023-05-07T06:35:12;13.53;78.43
74940;HTU21D;63505;45.226;37.908;2023-05-07T06:37:41;13.70;78.30
74940;HTU21D;63505;45.226;37.908;2023-05-07T06:40:13;13.89;78.18
74940;HTU21D;63505;45.226;37.908;2023-05-07T06:42:40;14.12;78.06
74940;HTU21D;63505;45.226;37.908;2023-05-07T06:45:38;14.45;77.82
74940;HTU21D;63505;45.226;37.908;2023-05-07T06:48:06;14.74;77.53
74940;HTU21D;63505;45.226;37.908;2023-05-07T06:50:41;15.03;77.35
74940;HTU21D;63505;45.226;37.908;2023-05-07T06:53:07;15.29;77.14
74940;HTU21D;63505;45.226;37.908;2023-05-07T06:55:33;15.49;76.98
74940;HTU21D;63505;45.226;37.908;2023-05-07T06:58:00;15.62;76.93
74940;HTU21D;63505;45.226;37.908;2023-05-07T07:00:27;15.75;76.88
74940;HTU21D;63505;45.226;37.908;2023-05-07T07:02:55;15.90;76.82
74940;HTU21D;63505;45.226;37.908;2023-05-07T07:05:24;15.96;76.70
74940;HTU21D;63505;45.226;37.908;2023-05-07T07:07:50;15.99;76.71
74940;HTU21D;63505;45.226;37.908;2023-05-07T07:10:19;16.08;76.67
74940;HTU21D;63505;45.226;37.908;2023-05-07T07:12:46;16.24;76.47
74940;HTU21D;63505;45.226;37.908;2023-05-07T07:15:13;16.39;76.32
74940;HTU21D;63505;45.226;37.908;2023-05-07T07:17:40;16.49;76.12
74940;HTU21D;63505;45.226;37.908;2023-05-07T07:20:06;16.56;75.96
74940;HTU21D;63505;45.226;37.908;2023-05-07T07:22:33;16.62;75.70
74940;HTU21D;63505;45.226;37.908;2023-05-07T07:24:59;16.64;75.52
74940;HTU21D;63505;45.226;37.908;2023-05-07T07:27:26;16.71;75.31
74940;HTU21D;63505;45.226;37.908;2023-05-07T07:29:51;16.70;75.14
74940;HTU21D;63505;45.226;37.908;2023-05-07T07:32:18;16.75;75.00
74940;HTU21D;63505;45.226;37.908;2023-05-07T07:34:45;16.80;74.94
74940;HTU21D;63505;45.226;37.908;2023-05-07T07:37:11;16.90;74.80
74940;HTU21D;63505;45.226;37.908;2023-05-07T07:39:37;16.98;74.64
74940;HTU21D;63505;45.226;37.908;2023-05-07T07:42:05;17.05;74.56
74940;HTU21D;63505;45.226;37.908;2023-05-07T07:44:32;17.15;74.44
74940;HTU21D;63505;45.226;37.908;2023-05-07T07:47:03;17.17;74.29
74940;HTU21D;63505;45.226;37.908;2023-05-07T07:49:29;17.17;74.15
74940;HTU21D;63505;45.226;37.908;2023-05-07T07:51:58;17.14;73.98
74940;HTU21D;63505;45.226;37.908;2023-05-07T07:54:25;17.07;73.92
74940;HTU21D;63505;45.226;37.908;2023-05-07T07:56:52;16.98;73.96
74940;HTU21D;63505;45.226;37.908;2023-05-07T07:59:18;16.88;73.98
74940;HTU21D;63505;45.226;37.908;2023-05-07T08:01:45;16.85;74.02
74940;HTU21D;63505;45.226;37.908;2023-05-07T08:04:14;16.90;73.93
74940;HTU21D;63505;45.226;37.908;2023-05-07T08:06:41;16.92;73.81
74940;HTU21D;63505;45.226;37.908;2023-05-07T08:09:09;16.92;73.71
74940;HTU21D;63505;45.226;37.908;2023-05-07T08:11:35;16.93;73.59
74940;HTU21D;63505;45.226;37.908;2023-05-07T08:14:02;16.93;73.53
74940;HTU21D;63505;45.226;37.908;2023-05-07T08:16:29;17.01;73.41
74940;HTU21D;63505;45.226;37.908;2023-05-07T08:18:55;17.07;73.30
74940;HTU21D;63505;45.226;37.908;2023-05-07T08:21:22;17.08;73.20
74940;HTU21D;63505;45.226;37.908;2023-05-07T08:23:48;17.11;73.09
74940;HTU21D;63505;45.226;37.908;2023-05-07T08:26:14;17.11;73.06
74940;HTU21D;63505;45.226;37.908;2023-05-07T08:28:41;17.09;73.00
74940;HTU21D;63505;45.226;37.908;2023-05-07T08:31:07;17.07;72.93
74940;HTU21D;63505;45.226;37.908;2023-05-07T08:33:36;17.02;72.84
74940;HTU21D;63505;45.226;37.908;2023-05-07T08:36:04;17.01;72.80
74940;HTU21D;63505;45.226;37.908;2023-05-07T08:38:31;16.95;72.74
74940;HTU21D;63505;45.226;37.908;2023-05-07T08:40:58;16.98;72.73
74940;HTU21D;63505;45.226;37.908;2023-05-07T08:43:26;17.03;72.67
74940;HTU21D;63505;45.226;37.908;2023-05-07T08:45:54;17.07;72.61
74940;HTU21D;63505;45.226;37.908;2023-05-07T08:48:25;17.17;72.47
74940;HTU21D;63505;45.226;37.908;2023-05-07T08:50:58;17.28;72.31
74940;HTU21D;63505;45.226;37.908;2023-05-07T08:53:25;17.30;72.19
74940;HTU21D;63505;45.226;37.908;2023-05-07T08:55:52;17.33;72.13
74940;HTU21D;63505;45.226;37.908;2023-05-07T08:58:19;17.34;72.13
74940;HTU21D;63505;45.226;37.908;2023-05-07T09:00:46;17.37;72.12
74940;HTU21D;63505;45.226;37.908;2023-05-07T09:03:13;17.41;72.09
74940;HTU21D;63505;45.226;37.908;2023-05-07T09:05:43;17.41;72.04
74940;HTU21D;63505;45.226;37.908;2023-05-07T09:08:15;17.41;72.01
74940;HTU21D;63505;45.226;37.908;2023-05-07T09:10:42;17.46;71.98
74940;HTU21D;63505;45.226;37.908;2023-05-07T09:13:08;17.49;71.93
74940;HTU21D;63505;45.226;37.908;2023-05-07T09:15:36;17.50;71.90
74940;HTU21D;63505;45.226;37.908;2023-05-07T09:18:02;17.49;71.87
74940;HTU21D;63505;45.226;37.908;2023-05-07T09:20:32;17.49;71.93
74940;HTU21D;63505;45.226;37.908;2023-05-07T09:22:59;17.48;71.99
74940;HTU21D;63505;45.226;37.908;2023-05-07T09:25:29;17.50;72.02
74940;HTU21D;63505;45.226;37.908;2023-05-07T09:27:56;17.50;72.04
74940;HTU21D;63505;45.226;37.908;2023-05-07T09:30:22;17.50;72.05
74940;HTU21D;63505;45.226;37.908;2023-05-07T09:32:49;17.53;72.04
74940;HTU21D;63505;45.226;37.908;2023-05-07T09:35:18;17.58;72.02
74940;HTU21D;63505;45.226;37.908;2023-05-07T09:37:56;17.59;71.98
74940;HTU21D;63505;45.226;37.908;2023-05-07T09:40:27;17.61;71.98
74940;HTU21D;63505;45.226;37.908;2023-05-07T09:42:56;17.67;71.91
74940;HTU21D;63505;45.226;37.908;2023-05-07T09:45:27;17.70;71.87
74940;HTU21D;63505;45.226;37.908;2023-05-07T09:47:56;17.74;71.83
74940;HTU21D;63505;45.226;37.908;2023-05-07T09:50:28;17.76;71.78
74940;HTU21D;63505;45.226;37.908;2023-05-07T09:52:56;17.83;71.74
74940;HTU21D;63505;45.226;37.908;2023-05-07T09:55:24;17.89;71.61
74940;HTU21D;63505;45.226;37.908;2023-05-07T09:57:53;17.95;71.61
74940;HTU21D;63505;45.226;37.908;2023-05-07T10:00:22;18.02;71.60
74940;HTU21D;63505;45.226;37.908;2023-05-07T10:02:50;18.03;71.54
74940;HTU21D;63505;45.226;37.908;2023-05-07T10:05:22;17.98;71.55
74940;HTU21D;63505;45.226;37.908;2023-05-07T10:07:51;17.94;71.60
74940;HTU21D;63505;45.226;37.908;2023-05-07T10:10:19;17.89;71.67
74940;HTU21D;63505;45.226;37.908;2023-05-07T10:12:47;17.87;71.70
74940;HTU21D;63505;45.226;37.908;2023-05-07T10:15:23;17.85;71.58
74940;HTU21D;63505;45.226;37.908;2023-05-07T10:17:53;17.89;71.48
74940;HTU21D;63505;45.226;37.908;2023-05-07T10:20:19;17.95;71.44
74940;HTU21D;63505;45.226;37.908;2023-05-07T10:22:47;18.04;71.41
74940;HTU21D;63505;45.226;37.908;2023-05-07T10:25:26;18.13;71.35
74940;HTU21D;63505;45.226;37.908;2023-05-07T10:27:55;18.23;71.19
74940;HTU21D;63505;45.226;37.908;2023-05-07T10:30:43;18.33;71.06
74940;HTU21D;63505;45.226;37.908;2023-05-07T10:33:13;18.43;70.95
74940;HTU21D;63505;45.226;37.908;2023-05-07T10:35:44;18.52;70.82
74940;HTU21D;63505;45.226;37.908;2023-05-07T10:38:12;18.63;70.67
74940;HTU21D;63505;45.226;37.908;2023-05-07T10:40:40;18.68;70.52
74940;HTU21D;63505;45.226;37.908;2023-05-07T10:43:07;18.71;70.46
74940;HTU21D;63505;45.226;37.908;2023-05-07T10:45:39;18.80;70.33
74940;HTU21D;63505;45.226;37.908;2023-05-07T10:50:35;18.87;70.17
74940;HTU21D;63505;45.226;37.908;2023-05-07T10:58:47;18.84;69.80
74940;HTU21D;63505;45.226;37.908;2023-05-07T11:01:53;18.82;69.73
74940;HTU21D;63505;45.226;37.908;2023-05-07T11:04:28;18.84;69.64
74940;HTU21D;63505;45.226;37.908;2023-05-07T11:07:25;18.85;69.45
74940;HTU21D;63505;45.226;37.908;2023-05-07T11:09:56;18.86;69.36
74940;HTU21D;63505;45.226;37.908;2023-05-07T11:15:10;18.82;68.95
74940;HTU21D;63505;45.226;37.908;2023-05-07T11:17:54;18.73;68.42
74940;HTU21D;63505;45.226;37.908;2023-05-07T11:20:44;18.67;68.39
74940;HTU21D;63505;45.226;37.908;2023-05-07T11:26:18;18.66;68.63
74940;HTU21D;63505;45.226;37.908;2023-05-07T11:28:45;18.65;68.62
74940;HTU21D;63505;45.226;37.908;2023-05-07T11:31:12;18.61;68.65
74940;HTU21D;63505;45.226;37.908;2023-05-07T11:33:39;18.61;68.73
74940;HTU21D;63505;45.226;37.908;2023-05-07T11:36:09;18.57;68.82
74940;HTU21D;63505;45.226;37.908;2023-05-07T11:38:41;18.52;68.92
74940;HTU21D;63505;45.226;37.908;2023-05-07T11:41:07;18.50;68.88
74940;HTU21D;63505;45.226;37.908;2023-05-07T11:43:33;18.42;68.74
74940;HTU21D;63505;45.226;37.908;2023-05-07T11:46:11;18.34;68.80
74940;HTU21D;63505;45.226;37.908;2023-05-07T11:48:38;18.29;68.84
74940;HTU21D;63505;45.226;37.908;2023-05-07T11:51:06;18.23;68.91
74940;HTU21D;63505;45.226;37.908;2023-05-07T11:53:37;18.17;69.04
74940;HTU21D;63505;45.226;37.908;2023-05-07T11:56:07;18.11;69.18
74940;HTU21D;63505;45.226;37.908;2023-05-07T11:58:33;18.04;69.33
74940;HTU21D;63505;45.226;37.908;2023-05-07T12:00:59;18.00;69.42
74940;HTU21D;63505;45.226;37.908;2023-05-07T12:03:25;17.97;69.68
74940;HTU21D;63505;45.226;37.908;2023-05-07T12:05:50;17.96;69.79
74940;HTU21D;63505;45.226;37.908;2023-05-07T12:08:17;17.93;69.89
74940;HTU21D;63505;45.226;37.908;2023-05-07T12:10:44;17.92;69.90
74940;HTU21D;63505;45.226;37.908;2023-05-07T12:13:21;17.89;69.96
74940;HTU21D;63505;45.226;37.908;2023-05-07T12:15:56;17.87;70.13
74940;HTU21D;63505;45.226;37.908;2023-05-07T12:18:23;17.81;70.27
74940;HTU21D;63505;45.226;37.908;2023-05-07T12:20:49;17.78;70.45
74940;HTU21D;63505;45.226;37.908;2023-05-07T12:23:16;17.78;70.58
74940;HTU21D;63505;45.226;37.908;2023-05-07T12:25:43;17.76;70.68
74940;HTU21D;63505;45.226;37.908;2023-05-07T12:28:19;17.75;70.71
74940;HTU21D;63505;45.226;37.908;2023-05-07T12:30:47;17.70;70.68
74940;HTU21D;63505;45.226;37.908;2023-05-07T12:33:17;17.69;70.71
74940;HTU21D;63505;45.226;37.908;2023-05-07T12:35:44;17.72;70.71
74940;HTU21D;63505;45.226;37.908;2023-05-07T12:38:11;17.73;70.73
74940;HTU21D;63505;45.226;37.908;2023-05-07T12:40:42;17.73;70.84
74940;HTU21D;63505;45.226;37.908;2023-05-07T12:43:33;17.65;70.93
74940;HTU21D;63505;45.226;37.908;2023-05-07T12:46:06;17.61;71.04
74940;HTU21D;63505;45.226;37.908;2023-05-07T12:48:33;17.56;71.11
74940;HTU21D;63505;45.226;37.908;2023-05-07T12:51:02;17.55;71.19
74940;HTU21D;63505;45.226;37.908;2023-05-07T12:53:29;17.54;71.25
74940;HTU21D;63505;45.226;37.908;2023-05-07T12:55:58;17.52;71.32
74940;HTU21D;63505;45.226;37.908;2023-05-07T12:58:30;17.50;71.39
74940;HTU21D;63505;45.226;37.908;2023-05-07T13:00:57;17.47;71.45
74940;HTU21D;63505;45.226;37.908;2023-05-07T13:03:28;17.43;71.49
74940;HTU21D;63505;45.226;37.908;2023-05-07T13:05:58;17.38;71.69
74940;HTU21D;63505;45.226;37.908;2023-05-07T13:08:31;17.30;71.87
74940;HTU21D;63505;45.226;37.908;2023-05-07T13:10:58;17.21;72.00
74940;HTU21D;63505;45.226;37.908;2023-05-07T13:13:25;17.16;72.13
74940;HTU21D;63505;45.226;37.908;2023-05-07T13:15:51;17.07;72.28
74940;HTU21D;63505;45.226;37.908;2023-05-07T13:18:17;17.02;72.41
74940;HTU21D;63505;45.226;37.908;2023-05-07T13:20:44;16.99;72.45
74940;HTU21D;63505;45.226;37.908;2023-05-07T13:23:09;16.92;72.50
74940;HTU21D;63505;45.226;37.908;2023-05-07T13:25:35;16.87;72.54
74940;HTU21D;63505;45.226;37.908;2023-05-07T13:28:01;16.80;72.74
74940;HTU21D;63505;45.226;37.908;2023-05-07T13:30:28;16.72;72.97
74940;HTU21D;63505;45.226;37.908;2023-05-07T13:32:55;16.65;73.11
74940;HTU21D;63505;45.226;37.908;2023-05-07T13:35:21;16.62;73.26
74940;HTU21D;63505;45.226;37.908;2023-05-07T13:37:47;16.56;73.41
74940;HTU21D;63505;45.226;37.908;2023-05-07T13:40:18;16.50;73.60
74940;HTU21D;63505;45.226;37.908;2023-05-07T13:42:44;16.45;73.80
74940;HTU21D;63505;45.226;37.908;2023-05-07T13:45:10;16.40;73.97
74940;HTU21D;63505;45.226;37.908;2023-05-07T13:47:40;16.33;74.18
74940;HTU21D;63505;45.226;37.908;2023-05-07T13:50:08;16.29;74.36
74940;HTU21D;63505;45.226;37.908;2023-05-07T13:52:34;16.20;74.55
74940;HTU21D;63505;45.226;37.908;2023-05-07T13:55:00;16.14;74.69
74940;HTU21D;63505;45.226;37.908;2023-05-07T13:57:26;16.06;74.96
74940;HTU21D;63505;45.226;37.908;2023-05-07T13:59:52;16.01;75.15
74940;HTU21D;63505;45.226;37.908;2023-05-07T14:02:18;15.95;75.33
74940;HTU21D;63505;45.226;37.908;2023-05-07T14:04:44;15.89;75.47
74940;HTU21D;63505;45.226;37.908;2023-05-07T14:07:10;15.87;75.67
74940;HTU21D;63505;45.226;37.908;2023-05-07T14:09:36;15.83;75.88
74940;HTU21D;63505;45.226;37.908;2023-05-07T14:12:02;15.80;76.08
74940;HTU21D;63505;45.226;37.908;2023-05-07T14:14:28;15.77;76.15
74940;HTU21D;63505;45.226;37.908;2023-05-07T14:16:54;15.76;76.20
74940;HTU21D;63505;45.226;37.908;2023-05-07T14:19:20;15.73;76.24
74940;HTU21D;63505;45.226;37.908;2023-05-07T14:21:48;15.70;76.41
74940;HTU21D;63505;45.226;37.908;2023-05-07T14:24:14;15.68;76.59
74940;HTU21D;63505;45.226;37.908;2023-05-07T14:26:40;15.66;76.64
74940;HTU21D;63505;45.226;37.908;2023-05-07T14:29:06;15.63;76.74
74940;HTU21D;63505;45.226;37.908;2023-05-07T14:31:32;15.65;76.75
74940;HTU21D;63505;45.226;37.908;2023-05-07T14:33:59;15.63;76.79
74940;HTU21D;63505;45.226;37.908;2023-05-07T14:36:25;15.63;76.82
74940;HTU21D;63505;45.226;37.908;2023-05-07T14:38:55;16.58;77.32
74940;HTU21D;63505;45.226;37.908;2023-05-07T14:41:24;17.87;74.70
74940;HTU21D;63505;45.226;37.908;2023-05-07T14:43:50;18.32;73.88
74940;HTU21D;63505;45.226;37.908;2023-05-07T14:46:17;18.32;74.05
74940;HTU21D;63505;45.226;37.908;2023-05-07T14:48:44;18.05;74.26
74940;HTU21D;63505;45.226;37.908;2023-05-07T14:51:11;17.68;74.86
74940;HTU21D;63505;45.226;37.908;2023-05-07T14:53:37;17.43;75.48
74940;HTU21D;63505;45.226;37.908;2023-05-07T14:56:04;17.36;75.86
74940;HTU21D;63505;45.226;37.908;2023-05-07T14:58:31;17.45;75.89
74940;HTU21D;63505;45.226;37.908;2023-05-07T15:00:57;17.60;75.86
74940;HTU21D;63505;45.226;37.908;2023-05-07T15:03:23;17.77;75.70
74940;HTU21D;63505;45.226;37.908;2023-05-07T15:05:49;17.95;75.71
74940;HTU21D;63505;45.226;37.908;2023-05-07T15:08:17;18.66;74.11
74940;HTU21D;63505;45.226;37.908;2023-05-07T15:10:43;19.41;72.48
74940;HTU21D;63505;45.226;37.908;2023-05-07T15:13:10;19.98;70.89
74940;HTU21D;63505;45.226;37.908;2023-05-07T15:15:36;20.32;69.97
74940;HTU21D;63505;45.226;37.908;2023-05-07T15:18:02;21.03;68.92
74940;HTU21D;63505;45.226;37.908;2023-05-07T15:20:28;21.73;67.30